Time;durP1;ratioP1;P1;durP2;ratioP2;P2;SDS_P1;SDS_P2;PMS_P1;PMS_P2;Temp;Humidity;BMP_temperature;BMP_pressure;BME280_temperature;BME280_humidity;BME280_pressure;Samples;Min_cycle;Max_cycle;Signal;HPM_P1;HPM_P2
2021/07/13 00:01:43;;;;;;;8.53;6.80;;;;;;;22.69;57.03;101093.66;5112690;28;20171;-59
2021/07/13 00:04:08;;;;;;;11.57;6.73;;;;;;;22.57;56.82;101098.44;5112170;28;20601;-59
2021/07/13 00:06:34;;;;;;;7.03;6.33;;;;;;;22.56;57.34;101105.38;5113046;28;20167;-59
2021/07/13 00:08:59;;;;;;;8.57;6.97;;;;;;;22.28;57.69;101093.09;5112870;28;20178;-59
2021/07/13 00:11:26;;;;;;;8.23;6.87;;;;;;;21.54;58.16;101003.91;5112537;28;20174;-59
2021/07/13 00:13:52;;;;;;;8.53;6.77;;;;;;;22.16;58.00;101113.25;5105383;28;20191;-59
2021/07/13 00:16:18;;;;;;;9.07;6.47;;;;;;;22.16;57.78;101114.03;5092047;28;20210;-59
2021/07/13 00:18:43;;;;;;;8.53;6.90;;;;;;;22.19;58.21;101117.88;5092220;28;20206;-59
2021/07/13 00:21:09;;;;;;;12.27;6.97;;;;;;;22.19;58.22;101109.41;5103269;28;20722;-59
2021/07/13 00:23:35;;;;;;;10.00;6.63;;;;;;;22.10;58.02;101106.81;5112126;28;20186;-59
2021/07/13 00:26:02;;;;;;;9.07;7.20;;;;;;;21.97;58.48;101097.94;5112533;28;20205;-59
2021/07/13 00:28:27;;;;;;;11.57;7.60;;;;;;;21.84;59.02;101089.88;5112423;28;20179;-59
2021/07/13 00:30:53;;;;;;;7.73;6.57;;;;;;;21.93;58.95;101097.38;5112135;28;20203;-59
2021/07/13 00:33:18;;;;;;;9.03;7.00;;;;;;;21.92;58.90;101098.66;5093059;28;20175;-60
2021/07/13 00:35:44;;;;;;;10.07;7.13;;;;;;;21.86;58.91;101090.13;5092071;28;20174;-60
2021/07/13 00:38:10;;;;;;;11.03;7.70;;;;;;;21.83;58.96;101093.19;5100903;28;20185;-59
2021/07/13 00:40:35;;;;;;;10.27;7.43;;;;;;;21.74;58.98;101093.38;5111801;28;20531;-59
2021/07/13 00:43:01;;;;;;;8.90;7.80;;;;;;;21.83;59.05;101104.47;5111779;28;20646;-59
2021/07/13 00:45:26;;;;;;;7.90;6.83;;;;;;;21.70;59.11;101079.47;5111975;28;20198;-59
2021/07/13 00:47:54;;;;;;;9.27;7.07;;;;;;;21.80;59.20;101103.44;5112214;28;20173;-59
2021/07/13 00:50:23;;;;;;;10.43;7.07;;;;;;;21.76;59.15;101114.19;5111313;28;20795;-59
2021/07/13 00:52:49;;;;;;;16.53;8.97;;;;;;;21.70;59.29;101106.94;5111905;28;20613;-59
2021/07/13 00:55:15;;;;;;;9.03;7.40;;;;;;;21.63;59.44;101107.31;5111666;28;20205;-59
2021/07/13 00:57:41;;;;;;;12.00;7.33;;;;;;;21.59;59.80;101109.59;5111961;28;20182;-60
2021/07/13 01:00:10;;;;;;;13.57;8.40;;;;;;;21.52;59.70;101119.25;5093069;28;20188;-60
2021/07/13 01:02:36;;;;;;;11.07;8.07;;;;;;;21.39;60.32;101135.75;5111302;28;20221;-61
2021/07/13 01:05:11;;;;;;;10.90;7.70;;;;;;;21.38;60.46;101117.31;5111433;28;20668;-60
2021/07/13 01:07:57;;;;;;;11.17;8.27;;;;;;;21.23;61.03;101125.06;5111893;28;20526;-60
2021/07/13 01:10:36;;;;;;;12.83;7.83;;;;;;;21.25;60.69;101114.09;5111153;28;20242;-60
2021/07/13 01:13:13;;;;;;;10.77;7.70;;;;;;;21.16;60.69;101116.25;5111053;28;20166;-59
2021/07/13 01:15:47;;;;;;;8.13;7.33;;;;;;;21.17;60.58;101124.22;5092246;28;20169;-59
2021/07/13 01:18:21;;;;;;;11.03;7.80;;;;;;;21.18;60.74;101117.31;5111546;28;20159;-59
2021/07/13 01:20:58;;;;;;;12.80;7.90;;;;;;;21.04;61.35;101123.03;5089213;28;20247;-59
2021/07/13 01:23:48;;;;;;;9.90;7.50;;;;;;;21.06;61.52;101115.63;5090774;28;20181;-59
2021/07/13 01:27:02;;;;;;;10.53;7.80;;;;;;;21.14;61.29;101121.63;5090971;28;20186;-59
2021/07/13 01:29:29;;;;;;;7.83;6.87;;;;;;;21.21;61.07;101118.38;5071899;28;20264;-59
2021/07/13 01:31:56;;;;;;;9.20;7.97;;;;;;;21.23;60.97;101113.78;5090565;28;20674;-59
2021/07/13 01:34:26;;;;;;;9.93;7.37;;;;;;;20.52;60.77;100998.09;5090913;28;20173;-59
2021/07/13 01:37:00;;;;;;;12.40;8.00;;;;;;;21.27;60.70;101125.63;5091070;28;20653;-59
2021/07/13 01:39:28;;;;;;;10.57;7.73;;;;;;;21.07;60.67;101082.56;5090141;28;20292;-59
2021/07/13 01:41:57;;;;;;;9.00;7.67;;;;;;;21.21;60.69;101110.69;5090311;28;20186;-59
2021/07/13 01:44:24;;;;;;;9.63;7.33;;;;;;;21.22;60.74;101123.50;5090579;28;20692;-59
2021/07/13 01:46:52;;;;;;;9.13;7.03;;;;;;;21.06;60.65;101121.25;5090795;28;20179;-59
2021/07/13 01:49:21;;;;;;;12.03;7.50;;;;;;;19.95;60.65;100970.91;5090770;28;20263;-60
2021/07/13 01:51:51;;;;;;;8.20;7.40;;;;;;;21.00;60.61;101123.22;5090482;28;20561;-60
2021/07/13 01:54:18;;;;;;;10.23;7.90;;;;;;;20.82;60.92;101109.38;5090598;28;20189;-59
2021/07/13 01:56:50;;;;;;;10.67;8.10;;;;;;;20.68;61.40;101093.28;5090866;28;20187;-59
2021/07/13 01:59:19;;;;;;;12.63;8.70;;;;;;;20.59;61.97;101117.97;5090789;28;20193;-59
2021/07/13 02:01:46;;;;;;;10.63;8.77;;;;;;;20.57;62.28;101123.34;5090302;28;20228;-60
2021/07/13 02:04:13;;;;;;;10.03;8.83;;;;;;;20.49;62.33;101100.44;5095620;28;20225;-59
2021/07/13 02:06:42;;;;;;;13.87;9.30;;;;;;;20.51;62.44;101116.81;5113785;28;20174;-59
2021/07/13 02:09:11;;;;;;;19.00;10.07;;;;;;;20.29;62.72;101088.34;5104583;28;20232;-59
2021/07/13 02:11:42;;;;;;;13.47;9.87;;;;;;;20.42;62.92;101116.97;5094707;28;20627;-59
2021/07/13 02:14:09;;;;;;;14.93;8.87;;;;;;;19.71;63.04;101032.88;5094311;28;20254;-59
2021/07/13 02:16:35;;;;;;;12.90;8.87;;;;;;;20.37;63.06;101126.84;5094861;28;20537;-60
2021/07/13 02:19:01;;;;;;;10.33;9.23;;;;;;;20.41;62.91;101121.06;5094512;28;20177;-59
2021/07/13 02:21:26;;;;;;;11.23;8.50;;;;;;;20.15;62.81;101089.91;5106818;27;20264;-60
2021/07/13 02:23:52;;;;;;;10.33;8.30;;;;;;;20.54;62.99;101130.72;5135059;27;20182;-59
2021/07/13 02:26:24;;;;;;;14.37;8.47;;;;;;;20.55;63.08;101134.31;5135448;27;20186;-59
2021/07/13 02:29:02;;;;;;;21.53;9.47;;;;;;;20.59;62.74;101138.47;5124458;27;20209;-59
2021/07/13 02:31:37;;;;;;;13.40;8.30;;;;;;;20.54;62.26;101125.09;5112841;28;20178;-59
2021/07/13 02:34:07;;;;;;;11.67;7.87;;;;;;;20.58;62.35;101130.53;5114641;28;20663;-59
2021/07/13 02:36:36;;;;;;;9.70;8.60;;;;;;;20.58;62.55;101136.91;5114667;28;20675;-59
2021/07/13 02:39:07;;;;;;;12.20;9.07;;;;;;;20.56;62.55;101150.72;5130396;27;20178;-59
2021/07/13 02:41:34;;;;;;;11.90;8.77;;;;;;;20.37;62.38;101101.53;5117627;27;20260;-59
2021/07/13 02:44:00;;;;;;;11.27;8.23;;;;;;;20.58;62.22;101138.97;5114127;28;20179;-59
2021/07/13 02:46:28;;;;;;;11.17;8.27;;;;;;;20.58;62.08;101145.34;5114559;27;20174;-59
2021/07/13 02:48:56;;;;;;;13.50;8.80;;;;;;;20.51;61.89;101123.25;5114434;28;20179;-59
2021/07/13 02:51:24;;;;;;;14.30;8.40;;;;;;;20.23;61.81;101088.28;5132783;27;20181;-59
2021/07/13 02:53:52;;;;;;;12.00;8.33;;;;;;;20.54;62.23;101139.19;5125390;27;20200;-59
2021/07/13 02:56:18;;;;;;;11.70;8.53;;;;;;;20.38;62.19;101130.47;5134800;27;20170;-59
2021/07/13 02:58:44;;;;;;;10.80;8.73;;;;;;;20.25;62.62;101142.00;5134990;27;20180;-59
2021/07/13 03:01:11;;;;;;;10.13;7.93;;;;;;;20.21;62.60;101127.38;5132900;27;20182;-59
2021/07/13 03:03:41;;;;;;;11.47;8.10;;;;;;;20.22;62.67;101133.78;5114147;27;20257;-59
2021/07/13 03:06:08;;;;;;;9.43;8.20;;;;;;;20.29;62.38;101130.56;5134235;27;20239;-59
2021/07/13 03:08:34;;;;;;;12.40;8.50;;;;;;;20.37;62.50;101131.72;5110738;28;20193;-59
2021/07/13 03:11:02;;;;;;;13.70;8.23;;;;;;;20.43;62.44;101135.41;5113855;28;20194;-59
2021/07/13 03:13:28;;;;;;;11.53;8.20;;;;;;;20.48;62.44;101132.69;5116969;27;20192;-59
2021/07/13 03:15:54;;;;;;;11.40;8.50;;;;;;;20.37;62.69;101120.47;5131578;27;20253;-59
2021/07/13 03:18:19;;;;;;;12.87;8.97;;;;;;;20.46;62.25;101126.75;5113610;28;20619;-59
2021/07/13 03:20:49;;;;;;;24.40;9.77;;;;;;;20.34;61.89;101127.84;5121845;27;20779;-59
2021/07/13 03:23:17;;;;;;;16.93;8.47;;;;;;;20.35;61.82;101120.94;5115210;27;20207;-59
2021/07/13 03:25:45;;;;;;;13.50;8.07;;;;;;;20.21;62.39;101126.59;5128073;27;20206;-59
2021/07/13 03:28:12;;;;;;;13.47;8.43;;;;;;;20.27;62.49;101130.28;5118950;27;20251;-59
2021/07/13 03:30:40;;;;;;;12.67;7.80;;;;;;;20.28;62.22;101126.19;5134015;27;20264;-59
2021/07/13 03:33:08;;;;;;;18.67;9.43;;;;;;;20.35;62.02;101123.75;5116250;27;20246;-59
2021/07/13 03:35:34;;;;;;;20.17;9.03;;;;;;;20.43;62.06;101124.13;5113401;28;20173;-59
2021/07/13 03:38:01;;;;;;;14.07;8.37;;;;;;;20.45;61.72;101139.28;5120340;27;20189;-59
2021/07/13 03:40:28;;;;;;;14.13;9.67;;;;;;;20.44;62.14;101140.56;5126066;27;20198;-59
2021/07/13 03:42:55;;;;;;;13.23;8.37;;;;;;;20.47;62.28;101139.56;5113035;28;20191;-59
2021/07/13 03:45:22;;;;;;;14.57;8.70;;;;;;;20.54;62.14;101139.19;5113103;28;20287;-58
2021/07/13 03:47:56;;;;;;;11.30;8.30;;;;;;;20.60;61.93;101130.78;5095256;28;20175;-59
2021/07/13 03:50:24;;;;;;;15.47;8.10;;;;;;;20.73;61.51;101134.06;5123356;27;20188;-59
2021/07/13 03:52:50;;;;;;;14.53;7.93;;;;;;;20.79;61.54;101129.28;5128598;27;20634;-59
2021/07/13 03:55:17;;;;;;;15.03;8.73;;;;;;;20.92;61.34;101133.34;5133448;27;20252;-59
2021/07/13 03:57:43;;;;;;;16.77;8.50;;;;;;;20.99;61.14;101135.75;5133903;27;20200;-59
2021/07/13 04:00:15;;;;;;;14.47;8.30;;;;;;;21.03;61.12;101130.69;5133551;27;20182;-59
2021/07/13 04:02:41;;;;;;;14.67;8.83;;;;;;;21.17;61.09;101138.31;5118311;27;20596;-59
2021/07/13 04:05:09;;;;;;;16.70;9.27;;;;;;;20.74;60.93;101073.66;5112730;28;20202;-59
2021/07/13 04:07:34;;;;;;;13.77;9.23;;;;;;;21.33;61.01;101143.38;5113505;28;20170;-60
2021/07/13 04:10:00;;;;;;;13.47;8.30;;;;;;;21.34;60.98;101142.09;5112587;28;20181;-59
2021/07/13 04:12:26;;;;;;;10.00;7.00;;;;;;;21.91;67.42;101137.38;5099712;27;20197;-60
2021/07/13 04:14:52;;;;;;;8.13;6.57;;;;;;;23.32;63.07;101146.69;5115678;27;20174;-60
2021/07/13 04:17:17;;;;;;;7.50;6.30;;;;;;;23.76;61.05;101154.56;5125708;27;20181;-60
2021/07/13 04:19:43;;;;;;;10.57;6.40;;;;;;;25.07;56.50;101151.00;5132893;27;20173;-60
2021/07/13 04:22:08;;;;;;;10.27;6.00;;;;;;;25.47;54.49;101146.72;5132109;27;20232;-60
2021/07/13 04:24:34;;;;;;;6.80;6.00;;;;;;;26.23;52.59;101150.44;5118546;27;20245;-66
2021/07/13 04:27:00;;;;;;;9.60;6.20;;;;;;;26.09;50.50;101040.78;5127631;27;20564;-64
2021/07/13 04:29:25;;;;;;;10.27;7.17;;;;;;;26.85;48.67;101123.78;5131586;27;20224;-63
2021/07/13 04:31:51;;;;;;;9.40;7.30;;;;;;;26.74;46.08;101099.09;5125533;27;20193;-66
2021/07/13 04:34:16;;;;;;;10.60;7.30;;;;;;;26.44;48.48;101155.16;5092945;28;20316;-68
2021/07/13 04:36:41;;;;;;;12.73;8.33;;;;;;;26.25;49.21;101148.59;5111939;28;20643;-62
2021/07/13 04:39:08;;;;;;;8.37;6.80;;;;;;;25.40;49.50;101152.97;5128838;27;20185;-65
2021/07/13 04:41:35;;;;;;;10.40;7.27;;;;;;;24.91;50.38;101151.03;5114994;27;20189;-64
2021/07/13 04:44:01;;;;;;;11.83;7.93;;;;;;;25.52;51.70;101148.78;5109190;28;20186;-63
2021/07/13 04:46:27;;;;;;;10.47;7.30;;;;;;;26.06;52.49;101147.69;5111956;28;20188;-64
2021/07/13 04:48:54;;;;;;;10.07;6.97;;;;;;;26.00;50.31;101004.22;5112081;28;20174;-66
2021/07/13 04:51:20;;;;;;;8.47;7.10;;;;;;;26.89;49.98;101141.31;5111313;28;20185;-65
2021/07/13 04:53:45;;;;;;;12.17;7.13;;;;;;;27.27;47.97;101137.31;5124519;27;20580;-64
2021/07/13 04:56:11;;;;;;;11.60;7.37;;;;;;;26.87;48.10;101102.03;5132112;27;20173;-63
2021/07/13 04:58:36;;;;;;;10.13;7.60;;;;;;;26.46;48.74;101094.97;5085841;28;20192;-71
2021/07/13 05:01:02;;;;;;;12.50;7.80;;;;;;;26.59;48.78;101137.75;5084783;28;20219;-65
2021/07/13 05:03:27;;;;;;;14.47;8.40;;;;;;;26.19;49.90;101142.19;5086941;28;20330;-69
2021/07/13 05:05:53;;;;;;;8.60;7.70;;;;;;;25.43;51.42;101055.47;5107547;27;20194;-62
2021/07/13 05:08:21;;;;;;;13.43;8.70;;;;;;;25.94;51.50;101159.69;5106458;28;20189;-63
2021/07/13 05:10:47;;;;;;;12.97;9.60;;;;;;;25.69;52.41;101153.06;5109049;28;20715;-63
2021/07/13 05:13:13;;;;;;;12.07;8.50;;;;;;;26.28;51.08;101158.13;5092286;27;20190;-63
2021/07/13 05:15:41;;;;;;;11.40;8.80;;;;;;;26.33;51.03;101154.47;5130101;27;20169;-62
2021/07/13 05:18:11;;;;;;;11.53;10.00;;;;;;;26.00;51.23;101163.25;5109963;27;20179;-65
2021/07/13 05:20:40;;;;;;;17.77;10.60;;;;;;;26.06;51.53;101156.22;5107388;28;20638;-63
2021/07/13 05:23:08;;;;;;;14.93;10.73;;;;;;;25.90;51.74;101130.75;5085107;28;20736;-65
2021/07/13 05:25:34;;;;;;;13.70;10.10;;;;;;;25.99;51.64;101165.31;5093268;28;20284;-62
2021/07/13 05:28:00;;;;;;;16.53;9.80;;;;;;;26.23;51.70;101162.56;5102254;28;20190;-65
2021/07/13 05:30:27;;;;;;;12.27;9.63;;;;;;;26.22;51.79;101166.72;5098778;28;20681;-66
2021/07/13 05:32:55;;;;;;;14.50;10.80;;;;;;;25.93;52.26;101135.41;5106560;28;20201;-66
2021/07/13 05:35:21;;;;;;;10.37;9.27;;;;;;;26.04;52.70;101152.38;5105432;28;20259;-65
2021/07/13 05:37:48;;;;;;;14.03;10.77;;;;;;;25.64;53.22;101094.25;5081584;28;20563;-62
2021/07/13 05:40:14;;;;;;;17.77;11.07;;;;;;;25.53;54.44;101114.19;5102860;28;20194;-63
2021/07/13 05:42:41;;;;;;;12.73;10.10;;;;;;;25.62;54.09;101139.44;5105572;28;20186;-66
2021/07/13 05:45:08;;;;;;;13.67;11.57;;;;;;;26.29;53.28;101174.66;5106287;28;20213;-62
2021/07/13 05:47:33;;;;;;;14.27;10.13;;;;;;;26.47;53.10;101173.97;5106450;28;20663;-64
2021/07/13 05:49:59;;;;;;;17.73;12.90;;;;;;;26.50;52.34;101147.34;5105043;28;20247;-62
2021/07/13 05:52:25;;;;;;;14.97;12.70;;;;;;;25.84;52.99;101101.66;5104544;28;20667;-61
2021/07/13 05:54:51;;;;;;;14.23;10.53;;;;;;;26.15;52.51;101084.88;5105972;28;20703;-61
2021/07/13 05:57:17;;;;;;;19.53;11.67;;;;;;;26.59;52.64;101189.69;5104562;28;20190;-63
2021/07/13 05:59:42;;;;;;;22.50;11.60;;;;;;;26.88;52.10;101171.84;5100658;28;20667;-61
2021/07/13 06:02:08;;;;;;;16.43;11.27;;;;;;;27.40;50.62;101174.38;5100630;28;20178;-60
2021/07/13 06:04:34;;;;;;;13.50;10.43;;;;;;;27.61;49.70;101175.41;5105803;28;20204;-64
2021/07/13 06:06:59;;;;;;;19.23;11.77;;;;;;;27.31;49.47;101118.63;5082312;28;20606;-65
2021/07/13 06:09:27;;;;;;;21.10;11.17;;;;;;;27.90;48.80;101169.59;5100435;28;20565;-64
2021/07/13 06:11:54;;;;;;;13.13;9.73;;;;;;;27.66;48.12;101106.22;5104332;28;20563;-65
2021/07/13 06:14:20;;;;;;;16.77;10.50;;;;;;;28.37;47.83;101181.31;5103391;28;20185;-63
2021/07/13 06:16:46;;;;;;;16.88;10.75;;;;;;;28.53;47.25;101181.09;5105827;28;20178;-63
2021/07/13 06:19:11;;;;;;;15.38;10.70;;;;;;;28.69;46.83;101187.78;5107951;28;20186;-62
2021/07/13 06:21:37;;;;;;;16.55;11.07;;;;;;;28.80;46.16;101182.69;5101732;28;20788;-65
2021/07/13 06:24:03;;;;;;;15.85;12.35;;;;;;;28.85;45.50;101183.88;5107855;28;20189;-63
2021/07/13 06:26:28;;;;;;;15.52;12.02;;;;;;;28.68;46.07;101172.00;5107244;28;20178;-63
2021/07/13 06:28:54;;;;;;;18.73;11.80;;;;;;;28.72;46.29;101178.16;5105687;28;20200;-66
2021/07/13 06:31:19;;;;;;;16.90;12.13;;;;;;;28.69;46.33;101182.88;5104661;28;20680;-63
2021/07/13 06:33:45;;;;;;;16.67;12.63;;;;;;;28.65;46.25;101190.19;5106160;28;20193;-63
2021/07/13 06:36:10;;;;;;;17.45;12.82;;;;;;;28.32;45.01;101156.53;5105909;28;20170;-65
2021/07/13 06:38:36;;;;;;;19.27;14.32;;;;;;;28.34;45.66;101188.88;5107735;28;20190;-62
2021/07/13 06:41:01;;;;;;;20.55;11.98;;;;;;;28.49;46.00;101186.31;5095717;28;20320;-62
2021/07/13 06:43:27;;;;;;;15.67;11.73;;;;;;;28.79;44.76;101180.34;5105289;28;20186;-62
2021/07/13 06:45:52;;;;;;;16.88;11.82;;;;;;;28.93;44.79;101179.06;5107402;28;20615;-62
2021/07/13 06:48:18;;;;;;;17.25;12.25;;;;;;;28.88;44.92;101179.94;5089577;28;20213;-58
2021/07/13 06:50:43;;;;;;;16.33;12.50;;;;;;;28.46;45.83;101186.66;5108855;28;20575;-66
2021/07/13 06:53:09;;;;;;;14.18;11.45;;;;;;;28.71;45.68;101185.94;5096141;28;20182;-65
2021/07/13 06:55:34;;;;;;;13.18;11.48;;;;;;;28.60;45.81;101182.50;5106986;28;20185;-63
2021/07/13 06:58:00;;;;;;;17.30;11.73;;;;;;;28.73;45.60;101182.53;5108978;28;20584;-62
2021/07/13 07:00:25;;;;;;;14.40;11.00;;;;;;;28.97;45.33;101165.28;5103130;28;20220;-61
2021/07/13 07:02:50;;;;;;;13.27;11.35;;;;;;;28.99;45.12;101165.50;5109304;28;20334;-61
2021/07/13 07:05:16;;;;;;;14.75;12.40;;;;;;;28.84;45.10;101162.38;5109784;28;20206;-64
2021/07/13 07:07:43;;;;;;;15.20;11.98;;;;;;;28.92;45.25;101163.28;5111079;28;20727;-68
2021/07/13 07:10:10;;;;;;;16.25;11.57;;;;;;;28.95;45.26;101156.47;5109863;28;20243;-63
2021/07/13 07:12:35;;;;;;;15.77;11.13;;;;;;;29.17;44.56;101164.63;5109599;28;20170;-63
2021/07/13 07:15:00;;;;;;;16.90;11.02;;;;;;;29.35;43.90;101150.25;5091446;28;20208;-63
2021/07/13 07:17:26;;;;;;;13.75;11.90;;;;;;;29.43;43.57;101153.94;5108963;28;20570;-63
2021/07/13 07:19:51;;;;;;;15.00;11.88;;;;;;;29.26;43.47;101119.28;5108947;28;20636;-63
2021/07/13 07:22:17;;;;;;;16.63;12.32;;;;;;;29.45;43.60;101156.25;5109074;28;20178;-63
2021/07/13 07:24:42;;;;;;;17.20;13.25;;;;;;;29.35;43.98;101160.88;5109597;28;20201;-63
2021/07/13 07:27:08;;;;;;;14.77;11.93;;;;;;;29.35;43.62;101149.47;5110190;28;20678;-63
2021/07/13 07:29:33;;;;;;;19.77;12.73;;;;;;;29.16;44.13;101118.19;5109952;28;20210;-63
2021/07/13 07:31:59;;;;;;;16.98;13.55;;;;;;;29.58;44.22;101145.59;5108286;28;20190;-63
2021/07/13 07:34:24;;;;;;;16.95;12.00;;;;;;;29.46;44.17;101152.06;5102839;28;20175;-63
2021/07/13 07:36:50;;;;;;;13.50;12.00;;;;;;;29.55;43.99;101152.44;5102822;28;20677;-63
2021/07/13 07:39:15;;;;;;;18.42;12.52;;;;;;;29.78;43.60;101147.00;5111070;27;20191;-63
2021/07/13 07:41:40;;;;;;;14.65;12.75;;;;;;;30.00;43.28;101152.19;5096435;28;20681;-63
2021/07/13 07:44:06;;;;;;;15.80;13.40;;;;;;;29.97;43.91;101133.28;5107962;28;20227;-63
2021/07/13 07:46:32;;;;;;;24.23;14.07;;;;;;;30.05;43.66;101145.59;5109324;28;20184;-64
2021/07/13 07:48:58;;;;;;;15.68;12.60;;;;;;;30.10;43.17;101142.59;5110421;28;20186;-63
2021/07/13 07:51:24;;;;;;;17.40;12.40;;;;;;;30.23;43.00;101142.56;5102563;28;20667;-64
2021/07/13 07:53:49;;;;;;;22.92;13.40;;;;;;;30.37;43.10;101137.53;5095983;28;20189;-61
2021/07/13 07:56:15;;;;;;;18.27;13.20;;;;;;;30.39;43.07;101143.47;5102787;28;20183;-62
2021/07/13 07:58:41;;;;;;;19.98;13.50;;;;;;;30.47;42.88;101145.09;5104388;28;20723;-61
2021/07/13 08:01:07;;;;;;;22.55;14.55;;;;;;;30.51;43.18;101139.75;5103721;27;20311;-62
2021/07/13 08:03:33;;;;;;;17.52;12.55;;;;;;;30.66;42.41;101147.75;5097475;27;20702;-62
2021/07/13 08:05:58;;;;;;;16.67;12.48;;;;;;;30.71;42.33;101147.59;5109807;28;20216;-62
2021/07/13 08:08:24;;;;;;;17.23;12.43;;;;;;;30.83;42.30;101143.13;5101330;28;20568;-62
2021/07/13 08:10:49;;;;;;;15.15;13.35;;;;;;;30.94;41.88;101139.94;5103564;28;20182;-64
2021/07/13 08:13:15;;;;;;;16.60;12.68;;;;;;;30.20;41.98;101057.91;5108103;28;20736;-61
2021/07/13 08:15:41;;;;;;;17.45;13.18;;;;;;;30.41;42.66;101110.13;5107923;28;20185;-61
2021/07/13 08:18:07;;;;;;;22.70;13.13;;;;;;;30.51;42.73;101145.47;5106952;28;20178;-61
2021/07/13 08:20:32;;;;;;;16.55;12.93;;;;;;;30.19;42.73;101090.69;5106614;28;20221;-61
2021/07/13 08:22:57;;;;;;;17.35;13.13;;;;;;;30.19;42.33;101076.38;5103208;28;20175;-61
2021/07/13 08:25:23;;;;;;;15.70;13.15;;;;;;;30.66;42.44;101156.34;5101341;28;20280;-61
2021/07/13 08:27:49;;;;;;;16.42;12.40;;;;;;;30.78;42.17;101151.84;5099342;28;20189;-61
2021/07/13 08:30:15;;;;;;;18.23;12.18;;;;;;;30.77;42.00;101156.78;5096399;28;20186;-61
2021/07/13 08:32:42;;;;;;;18.40;12.20;;;;;;;30.85;42.02;101128.22;5093129;28;20186;-61
2021/07/13 08:35:08;;;;;;;18.00;11.65;;;;;;;31.05;41.36;101153.94;5098736;28;20194;-61
2021/07/13 08:37:35;;;;;;;14.57;11.23;;;;;;;31.06;41.64;101149.75;5095039;28;20186;-61
2021/07/13 08:40:04;;;;;;;19.00;11.60;;;;;;;31.29;40.74;101144.19;5084551;28;20194;-61
2021/07/13 08:42:35;;;;;;;14.98;10.85;;;;;;;31.00;41.20;101093.97;5091618;28;20185;-61
2021/07/13 08:45:04;;;;;;;13.15;11.25;;;;;;;31.59;40.98;101145.09;5094938;28;20209;-61
2021/07/13 08:47:29;;;;;;;15.82;11.10;;;;;;;31.79;40.01;101152.84;5090248;28;20580;-61
2021/07/13 08:49:56;;;;;;;13.63;11.20;;;;;;;31.79;39.92;101144.25;5095407;28;20186;-62
2021/07/13 08:52:22;;;;;;;13.38;11.27;;;;;;;31.80;39.80;101147.88;5097246;28;20268;-62
2021/07/13 08:54:48;;;;;;;14.07;11.13;;;;;;;31.85;39.89;101146.94;5098873;28;20191;-62
2021/07/13 08:57:14;;;;;;;15.10;11.02;;;;;;;31.88;39.71;101145.81;5096677;28;20181;-63
2021/07/13 08:59:39;;;;;;;13.90;10.48;;;;;;;32.06;39.63;101144.69;5093296;28;20189;-61
2021/07/13 09:02:05;;;;;;;15.35;11.25;;;;;;;32.11;39.15;101138.81;5097140;28;20186;-62
2021/07/13 09:04:35;;;;;;;14.73;11.10;;;;;;;32.27;38.71;101137.50;5092435;28;20842;-67
2021/07/13 09:07:07;;;;;;;18.75;10.95;;;;;;;32.43;39.70;101153.41;5073372;28;20190;-63
2021/07/13 09:09:33;;;;;;;13.15;11.40;;;;;;;32.72;38.59;101137.53;5092688;28;20160;-62
2021/07/13 09:12:12;;;;;;;17.67;10.75;;;;;;;32.85;38.14;101142.31;5099727;28;20198;-63
2021/07/13 09:15:08;;;;;;;13.13;9.65;;;;;;;32.79;36.83;101139.66;5101570;27;20302;-62
2021/07/13 09:17:44;;;;;;;10.75;8.85;;;;;;;32.57;37.11;101140.41;5101018;28;20178;-63
2021/07/13 09:20:39;;;;;;;11.00;9.25;;;;;;;32.70;37.50;101145.19;5107964;28;20228;-63
2021/07/13 09:23:06;;;;;;;13.30;10.30;;;;;;;32.83;37.69;101140.03;5106409;28;20174;-66
2021/07/13 09:25:44;;;;;;;11.38;8.73;;;;;;;32.87;36.58;101134.63;5108611;27;20198;-64
2021/07/13 09:28:28;;;;;;;10.68;9.00;;;;;;;33.02;36.96;101148.22;5101448;27;20178;-64
2021/07/13 09:30:58;;;;;;;10.73;8.80;;;;;;;33.13;36.44;101114.13;5098144;28;20235;-63
2021/07/13 09:33:25;;;;;;;13.60;9.38;;;;;;;33.20;36.01;101133.44;5094004;28;20664;-64
2021/07/13 09:36:00;;;;;;;13.65;8.90;;;;;;;33.19;36.49;101125.41;5088882;28;20170;-64
2021/07/13 09:38:28;;;;;;;11.75;8.95;;;;;;;33.25;36.06;101120.19;5110919;28;20558;-60
2021/07/13 09:41:10;;;;;;;13.60;8.57;;;;;;;33.27;36.29;101114.66;5098372;28;20214;-61
2021/07/13 09:43:43;;;;;;;11.10;9.05;;;;;;;32.76;35.99;101028.81;5096190;28;20182;-60
2021/07/13 09:46:28;;;;;;;10.93;8.02;;;;;;;33.42;36.03;101112.50;5106585;28;20209;-60
2021/07/13 09:49:20;;;;;;;11.13;9.20;;;;;;;33.63;35.63;101117.97;5107369;28;20181;-65
2021/07/13 09:51:51;;;;;;;11.65;8.70;;;;;;;33.74;35.43;101109.66;5098274;28;20192;-64
2021/07/13 09:54:37;;;;;;;13.35;9.10;;;;;;;33.36;34.47;101080.34;5106527;28;20719;-62
2021/07/13 09:57:08;;;;;;;12.00;9.35;;;;;;;33.53;36.26;101105.56;5106674;28;20565;-62
2021/07/13 09:59:34;;;;;;;16.13;9.50;;;;;;;33.68;36.34;101109.13;5107581;28;20174;-62
2021/07/13 10:02:04;;;;;;;15.70;9.13;;;;;;;33.94;35.87;101105.00;5110312;28;20185;-63
2021/07/13 10:04:31;;;;;;;14.07;8.88;;;;;;;34.04;35.15;101075.00;5104727;28;20212;-64
2021/07/13 10:07:00;;;;;;;16.38;9.32;;;;;;;34.28;35.45;101108.03;5104214;28;20261;-63
2021/07/13 10:09:30;;;;;;;11.75;8.95;;;;;;;33.78;34.45;100992.19;5108161;28;20250;-63
2021/07/13 10:11:56;;;;;;;16.80;9.02;;;;;;;34.57;34.25;101101.28;5102197;28;20524;-63
2021/07/13 10:14:22;;;;;;;13.93;9.07;;;;;;;34.60;35.01;101094.31;5106963;28;20696;-61
2021/07/13 10:16:48;;;;;;;9.77;8.48;;;;;;;34.77;33.92;101099.38;5107121;28;20193;-62
2021/07/13 10:19:14;;;;;;;13.40;7.57;;;;;;;34.26;32.70;101002.16;5107252;28;20258;-64
2021/07/13 10:21:40;;;;;;;10.52;8.32;;;;;;;35.01;33.52;101098.56;5089815;28;20218;-64
2021/07/13 10:24:06;;;;;;;11.05;8.00;;;;;;;35.01;32.45;101067.63;5108173;28;20376;-63
2021/07/13 10:26:51;;;;;;;13.00;7.32;;;;;;;35.20;30.89;101093.72;5098897;28;20744;-64
2021/07/13 10:29:31;;;;;;;12.10;6.38;;;;;;;35.05;30.96;101096.78;5099440;28;20182;-61
2021/07/13 10:31:58;;;;;;;12.43;7.60;;;;;;;35.19;32.03;101097.97;5111581;28;20178;-62
2021/07/13 10:34:50;;;;;;;10.02;6.25;;;;;;;35.50;28.64;101092.59;5111464;28;20262;-63
2021/07/13 10:37:42;;;;;;;11.95;6.93;;;;;;;35.61;29.82;101083.41;5101828;28;20197;-64
2021/07/13 10:40:10;;;;;;;13.07;7.32;;;;;;;35.79;30.16;101085.72;5103533;27;20657;-65
2021/07/13 10:42:41;;;;;;;13.45;6.53;;;;;;;35.94;30.59;101081.81;5110375;28;20174;-63
2021/07/13 10:45:30;;;;;;;13.05;6.82;;;;;;;36.08;29.76;101080.81;5093728;28;20643;-63
2021/07/13 10:48:21;;;;;;;10.50;6.55;;;;;;;36.00;29.07;101080.19;5099693;28;20226;-63
2021/07/13 10:50:57;;;;;;;9.93;6.20;;;;;;;36.06;28.24;101042.41;5111576;27;20175;-62
2021/07/13 10:53:31;;;;;;;8.57;6.03;;;;;;;36.45;28.10;101067.91;5103661;28;20189;-62
2021/07/13 10:56:00;;;;;;;8.43;6.38;;;;;;;36.30;28.34;101029.91;5104741;28;20192;-63
2021/07/13 10:58:27;;;;;;;7.30;5.60;;;;;;;36.62;27.80;101064.16;5107817;28;20261;-63
2021/07/13 11:00:59;;;;;;;6.90;5.30;;;;;;;36.72;26.71;101059.19;5110145;28;20300;-64
2021/07/13 11:06:09;;;;;;;8.80;5.20;;;;;;;36.80;27.19;101039.59;5109520;28;20209;-61
2021/07/13 11:11:07;;;;;;;7.65;4.72;;;;;;;36.98;26.73;101044.63;5109980;28;20655;-62
2021/07/13 11:13:33;;;;;;;7.20;5.18;;;;;;;37.08;25.70;101041.72;5112559;27;20260;-61
2021/07/13 11:15:59;;;;;;;8.60;4.90;;;;;;;37.13;25.36;101034.91;5106211;28;20312;-61
2021/07/13 11:18:28;;;;;;;8.75;4.50;;;;;;;36.79;24.85;101007.06;5106778;28;20257;-64
2021/07/13 11:20:54;;;;;;;6.90;4.35;;;;;;;36.99;25.05;101028.03;5110558;28;20749;-62
2021/07/13 11:23:29;;;;;;;7.07;4.70;;;;;;;36.58;24.52;100951.22;5109467;28;20174;-63
2021/07/13 11:26:09;;;;;;;8.27;4.80;;;;;;;37.20;25.16;101028.19;5111756;27;20200;-64
2021/07/13 11:28:39;;;;;;;8.35;4.75;;;;;;;36.90;25.07;100934.22;5109878;28;20534;-64